Latest Weather Observations for Hindmarsh Island

IDS60901

Issued at 4:51 pm CDT Thursday 23 March 2017 (issued every 10 minutes, with the page automatically refreshed every 10 minutes)

About weather observations | Map of Adelaide area stations | Latest observations for Adelaide area | Other Formats
Station Details ID: 023894 Name: HINDMARSH ISLAND AWS Lat: -35.52 Lon: 138.82 Height: 11.0 m
Data from the previous 72 hours. | See also: Recent months at Hindmarsh Island
Date/Time
CDT
Temp
°C
App
Temp
°C
Dew
Point
°C
Rel
Hum
%
Delta-T
°C
Wind Press
QNH
hPa
Press
MSL
hPa
Rain since
9am
mm
Dir  Spd
km/h
Gust
km/h
Spd
kts
Gust
kts
23/04:30pm 21.3 18.6 15.6 70 3.4 S 24 28 13 15 1016.3 1016.3 0.0
23/04:00pm 21.9 19.2 15.7 68 3.7 S 24 28 13 15 1016.4 1016.4 0.0
23/03:30pm 22.0 19.5 16.1 69 3.6 S 24 26 13 14 1016.3 1016.3 0.0
23/03:00pm 21.9 19.2 15.7 68 3.7 S 24 26 13 14 1016.4 1016.4 0.0
23/02:30pm 21.7 18.8 16.0 70 3.4 S 26 30 14 16 1016.5 1016.5 0.0
23/02:00pm 21.7 19.1 14.8 65 4.1 SSE 22 28 12 15 1016.9 1016.9 0.0
23/01:30pm 21.9 20.0 15.7 68 3.7 SSE 20 24 11 13 1017.4 1017.4 0.0
23/01:00pm 21.0 18.3 14.6 67 3.7 SSE 22 26 12 14 1017.8 1017.8 0.0
23/12:30pm 21.1 18.1 14.7 67 3.7 SSE 24 26 13 14 1018.0 1018.0 0.0
23/12:00pm 20.4 17.2 14.3 68 3.5 SSE 24 28 13 15 1018.6 1018.6 0.0
23/11:30am 20.5 17.4 14.4 68 3.5 SSE 24 28 13 15 1019.3 1019.3 0.0
23/11:00am 20.3 16.8 14.4 69 3.4 SSE 26 30 14 16 1019.0 1019.0 0.0
23/10:30am 20.1 16.8 14.0 68 3.5 SE 24 28 13 15 1018.7 1018.7 0.0
23/10:00am 19.7 16.4 14.1 70 3.2 SE 24 30 13 16 1018.9 1018.9 0.0
23/09:30am 19.3 16.0 13.9 71 3.1 ESE 24 28 13 15 1019.6 1019.6 0.0
23/09:00am 18.3 14.1 13.4 73 2.8 ESE 28 33 15 18 1018.8 1018.8 0.0
23/08:30am 17.7 14.3 13.6 77 2.3 ESE 24 30 13 16 1018.8 1018.8 0.0
23/08:00am 16.8 14.8 13.9 83 1.6 ESE 17 22 9 12 1018.7 1018.7 0.0
23/07:30am 16.5 14.5 13.8 84 1.5 E 17 20 9 11 1018.1 1018.1 0.0
23/07:00am 17.5 13.0 14.8 84 1.6 SE 32 39 17 21 1017.5 1017.5 0.0
23/06:30am 17.7 13.2 14.8 83 1.7 SE 32 37 17 20 1017.5 1017.5 0.0
23/06:00am 17.7 13.1 14.6 82 1.8 SE 32 37 17 20 1017.7 1017.7 0.0
23/05:30am 18.0 13.5 14.9 82 1.8 SE 32 37 17 20 1017.5 1017.5 0.0
23/05:00am 18.2 13.9 15.3 83 1.7 SE 32 39 17 21 1017.6 1017.6 0.0
23/04:30am 18.2 13.9 15.3 83 1.7 SE 32 39 17 21 1017.7 1017.7 0.0
23/04:00am 18.1 13.7 15.2 83 1.7 SE 32 39 17 21 1017.7 1017.7 0.0
23/03:30am 18.2 13.8 15.1 82 1.8 SE 32 39 17 21 1018.0 1018.0 0.0
23/03:00am 18.1 13.5 15.0 82 1.8 SE 33 39 18 21 1017.8 1017.8 0.0
23/02:30am 18.1 13.1 15.0 82 1.8 SE 35 41 19 22 1017.8 1017.8 0.0
23/02:00am 18.1 13.1 15.0 82 1.8 SE 35 41 19 22 1017.7 1017.7 0.0
23/01:30am 18.1 12.6 14.8 81 1.9 SE 37 41 20 22 1017.9 1017.9 0.0
23/01:00am 18.3 12.4 14.8 80 2.0 SE 39 44 21 24 1018.3 1018.3 0.0
23/12:30am 18.5 12.7 15.0 80 2.0 SE 39 44 21 24 1018.3 1018.3 0.0
23/12:00am 18.7 13.4 15.4 81 1.9 SE 37 44 20 24 1018.2 1018.2 0.0
 
Date/Time
CDT
Temp
°C
App
Temp
°C
Dew
Point
°C
Rel
Hum
%
Delta-T
°C
Wind Press
QNH
hPa
Press
MSL
hPa
Rain since
9am
mm
Dir  Spd
km/h
Gust
km/h
Spd
kts
Gust
kts
22/11:30pm 18.6 12.9 15.3 81 1.9 SE 39 46 21 25 1018.3 1018.3 0.0
22/11:00pm 18.8 13.3 15.7 82 1.8 SE 39 46 21 25 1018.4 1018.4 0.0
22/10:30pm 18.5 13.1 15.0 80 2.0 SSE 37 46 20 25 1018.5 1018.5 0.0
22/10:00pm 18.6 13.4 15.5 82 1.8 SSE 37 43 20 23 1018.5 1018.5 0.0
22/09:30pm 18.6 13.8 15.5 82 1.8 SSE 35 41 19 22 1018.5 1018.5 0.0
22/09:00pm 18.5 13.9 15.2 81 1.9 SSE 33 41 18 22 1018.0 1018.0 0.0
22/08:30pm 18.5 13.1 15.0 80 2.0 SSE 37 44 20 24 1017.9 1017.9 0.0
22/08:00pm 18.7 13.3 15.0 79 2.2 SSE 37 48 20 26 1017.4 1017.4 0.0
22/07:30pm 19.0 13.3 15.3 79 2.2 SSE 39 46 21 25 1017.2 1017.2 0.0
22/07:00pm 18.9 13.1 15.0 78 2.3 SSE 39 44 21 24 1017.4 1017.4 0.0
22/06:30pm 19.0 13.3 15.3 79 2.2 SSE 39 48 21 26 1017.1 1017.1 0.0
22/06:00pm 19.1 13.3 15.0 77 2.4 SSE 39 44 21 24 1017.1 1017.1 0.0
22/05:30pm 19.2 13.5 15.1 77 2.4 SSE 39 48 21 26 1017.0 1017.0 0.0
22/05:00pm 19.1 12.6 15.2 78 2.3 SSE 43 48 23 26 1016.7 1016.7 0.0
22/04:30pm 19.4 13.6 14.9 75 2.6 SSE 39 46 21 25 1017.0 1017.0 0.0
22/04:00pm 19.7 13.7 15.4 76 2.5 SSE 41 48 22 26 1017.2 1017.2 0.0
22/03:30pm 19.8 13.6 15.0 74 2.8 SSE 41 48 22 26 1016.9 1016.9 0.0
22/03:00pm 19.8 13.3 15.0 74 2.8 SSE 43 48 23 26 1017.0 1017.0 0.0
22/02:30pm 19.6 13.9 15.3 76 2.5 SSE 39 44 21 24 1017.2 1017.2 0.0
22/02:00pm 19.7 13.5 14.9 74 2.8 SSE 41 46 22 25 1017.3 1017.3 0.0
22/01:30pm 19.7 14.1 15.4 76 2.5 SSE 39 46 21 25 1017.6 1017.6 0.0
22/01:00pm 19.4 13.2 14.9 75 2.6 SSE 41 46 22 25 1017.9 1017.9 0.0
22/12:30pm 19.4 13.7 15.3 77 2.4 SSE 39 46 21 25 1018.1 1018.1 0.0
22/12:00pm 19.3 13.6 15.2 77 2.4 SSE 39 48 21 26 1018.4 1018.4 0.0
22/11:30am 19.5 14.2 15.2 76 2.5 SSE 37 43 20 23 1018.6 1018.6 0.0
22/11:00am 19.4 14.2 15.5 78 2.3 SSE 37 44 20 24 1018.6 1018.6 0.0
22/10:30am 19.6 14.6 15.0 75 2.7 SE 35 43 19 23 1018.4 1018.4 0.0
22/10:00am 19.4 14.0 15.1 76 2.5 SE 37 46 20 25 1017.9 1017.9 0.0
22/09:30am 19.1 12.8 14.6 75 2.6 SE 41 48 22 26 1017.6 1017.6 0.0
22/09:00am 19.3 13.6 15.2 77 2.4 SE 39 44 21 24 1017.2 1017.2 0.2
22/08:30am 19.2 14.1 14.9 76 2.5 SE 35 46 19 25 1016.7 1016.7 0.2
22/08:00am 19.2 14.3 15.3 78 2.3 SE 35 41 19 22 1016.4 1016.4 0.2
22/07:30am 19.2 14.9 15.5 79 2.2 SE 32 39 17 21 1016.3 1016.3 0.2
22/07:00am 19.3 14.0 15.4 78 2.3 SE 37 48 20 26 1015.9 1015.9 0.2
22/06:30am 19.2 13.5 15.3 78 2.3 SE 39 46 21 25 1015.3 1015.3 0.2
22/06:00am 19.2 14.1 15.7 80 2.1 SE 37 43 20 23 1015.3 1015.3 0.2
22/05:30am 19.0 12.9 15.1 78 2.3 SE 41 52 22 28 1014.9 1014.9 0.2
22/05:00am 19.0 13.3 15.1 78 2.3 SE 39 48 21 26 1014.5 1014.5 0.2
22/04:30am 19.1 13.0 15.2 78 2.3 SE 41 48 22 26 1014.6 1014.6 0.2
22/04:00am 19.3 13.7 15.6 79 2.2 SSE 39 50 21 27 1014.7 1014.7 0.2
22/03:30am 19.3 15.0 15.8 80 2.1 SSE 33 41 18 22 1014.7 1014.7 0.2
22/03:00am 19.2 14.9 15.3 78 2.3 SSE 32 41 17 22 1014.7 1014.7 0.2
22/02:30am 19.1 14.5 15.2 78 2.3 SE 33 43 18 23 1014.6 1014.6 0.2
22/02:00am 19.1 14.2 15.4 79 2.2 SSE 35 44 19 24 1014.4 1014.4 0.2
22/01:30am 19.4 15.1 15.9 80 2.1 SE 33 43 18 23 1014.5 1014.5 0.2
22/01:00am 19.3 15.0 16.0 81 2.0 SSE 33 43 18 23 1014.3 1014.3 0.2
22/12:30am 19.5 15.5 16.3 82 1.9 SSE 32 37 17 20 1014.4 1014.4 0.2
22/12:00am 19.5 14.9 16.2 81 2.0 SSE 35 43 19 23 1014.3 1014.3 0.2
 
Date/Time
CDT
Temp
°C
App
Temp
°C
Dew
Point
°C
Rel
Hum
%
Delta-T
°C
Wind Press
QNH
hPa
Press
MSL
hPa
Rain since
9am
mm
Dir  Spd
km/h
Gust
km/h
Spd
kts
Gust
kts
21/11:30pm 19.5 15.4 16.5 83 1.8 SSE 33 41 18 22 1014.2 1014.2 0.2
21/11:00pm 19.5 15.5 16.7 84 1.7 SSE 33 41 18 22 1014.1 1014.1 0.2
21/10:30pm 19.7 15.8 16.9 84 1.7 SSE 33 43 18 23 1013.7 1013.7 0.2
21/10:00pm 19.9 15.6 16.9 83 1.8 SSE 35 41 19 22 1013.3 1013.3 0.2
21/09:30pm 20.0 14.7 17.2 84 1.7 SSE 41 48 22 26 1012.8 1012.8 0.2
21/09:00pm 20.2 15.1 17.6 85 1.6 SSE 41 48 22 26 1012.3 1012.3 0.2
21/08:30pm 20.2 16.8 17.6 85 1.6 SSE 32 41 17 22 1011.6 1011.6 0.2
21/08:00pm 20.1 16.4 17.5 85 1.6 SSE 33 41 18 22 1011.5 1011.5 0.2
21/07:30pm 20.0 16.9 17.4 85 1.6 S 30 35 16 19 1011.3 1011.3 0.2
21/07:00pm 20.2 16.6 17.6 85 1.6 S 33 39 18 21 1011.0 1011.0 0.2
21/06:30pm 20.2 16.6 17.2 83 1.8 S 32 37 17 20 1010.9 1010.9 0.2
21/06:00pm 21.3 18.7 17.9 81 2.1 S 28 32 15 17 1010.7 1010.6 0.2
21/05:30pm 21.3 17.9 17.7 80 2.2 SSE 32 39 17 21 1010.4 1010.3 0.2
21/05:00pm 21.8 18.2 17.6 77 2.6 SSE 33 39 18 21 1009.7 1009.6 0.2
21/04:30pm 22.2 18.0 18.0 77 2.6 SSE 37 43 20 23 1009.5 1009.4 0.2
21/04:00pm 22.4 17.4 18.0 76 2.7 S 41 46 22 25 1009.3 1009.2 0.2
21/03:30pm 24.2 21.1 18.4 70 3.7 SSW 32 39 17 21 1009.7 1009.6 0.2
21/03:24pm 24.7 22.5 18.6 69 3.9 SSW 28 39 15 21 1009.6 1009.5 0.2
21/03:00pm 27.4 27.0 18.1 57 5.9 S 17 20 9 11 1009.7 1009.6 0.2
21/02:30pm 26.7 27.1 17.2 56 5.9 S 11 17 6 9 1010.1 1010.0 0.2
21/02:00pm 26.6 26.6 18.2 60 5.3 SSE 15 20 8 11 1010.2 1010.1 0.2
21/01:30pm 24.7 24.4 18.2 67 4.1 SE 17 19 9 10 1010.5 1010.4 0.2
21/01:00pm 22.5 19.4 17.6 74 3.0 SE 30 35 16 19 1010.8 1010.7 0.0
21/12:30pm 22.3 17.4 17.2 73 3.1 SE 39 46 21 25 1011.0 1011.0 0.0
21/12:00pm 22.9 19.2 17.4 71 3.4 SE 33 41 18 22 1011.5 1011.5 0.0
21/11:30am 22.9 17.6 16.4 67 4.0 ESE 39 46 21 25 1011.4 1011.4 0.0
21/11:00am 21.9 17.6 17.9 78 2.5 ESE 37 44 20 24 1011.4 1011.4 0.0
21/10:30am 22.6 18.3 16.9 70 3.5 SE 35 46 19 25 1011.2 1011.2 0.0
21/10:00am 20.9 17.0 16.5 76 2.7 SE 32 39 17 21 1011.3 1011.3 0.0
21/09:30am 20.7 16.9 17.3 81 2.1 SE 33 41 18 22 1011.0 1011.0 0.0
21/09:00am 20.1 15.8 16.9 82 1.9 SSE 35 43 19 23 1011.0 1011.0 1.0
21/08:30am 20.2 15.9 17.0 82 1.9 S 35 43 19 23 1010.9 1010.9 1.0
21/08:00am 20.1 16.3 17.3 84 1.7 S 33 39 18 21 1010.5 1010.4 1.0
21/07:30am 20.3 16.3 17.5 84 1.7 SSW 35 44 19 24 1010.5 1010.4 1.0
21/07:00am 20.5 16.5 18.4 88 1.3 SW 37 46 20 25 1010.2 1010.1 1.0
21/06:50am 20.6 18.4 18.7 89 1.2 SW 28 43 15 23 1010.5 1010.4 1.0
21/06:30am 20.1 22.5 17.9 87 1.4 ESE 2 6 1 3 1009.3 1009.2 1.0
21/06:00am 20.0 21.4 17.8 87 1.4 ESE 7 9 4 5 1009.0 1008.9 1.0
21/05:30am 20.3 21.8 17.7 85 1.6 SE 6 9 3 5 1008.8 1008.7 1.0
21/05:00am 20.3 22.2 17.7 85 1.6 ENE 4 6 2 3 1008.6 1008.5 1.0
21/04:30am 20.3 23.2 18.1 87 1.4 CALM 0 0 0 0 1008.6 1008.5 1.0
21/04:00am 20.3 21.7 17.9 86 1.5 SE 7 9 4 5 1008.6 1008.5 1.0
21/03:30am 20.5 22.1 17.9 85 1.6 WSW 6 7 3 4 1009.1 1009.0 1.0
21/03:00am 20.6 22.6 17.8 84 1.7 ESE 4 6 2 3 1009.1 1009.0 1.0
21/02:30am 20.3 21.8 17.7 85 1.6 E 6 9 3 5 1009.5 1009.4 1.0
21/02:00am 20.5 20.9 18.1 86 1.5 SE 13 15 7 8 1009.7 1009.6 1.0
21/01:30am 20.5 21.3 18.1 86 1.5 SSE 11 13 6 7 1010.0 1009.9 1.0
21/01:00am 20.8 20.9 18.4 86 1.5 S 15 17 8 9 1010.2 1010.1 1.0
21/12:30am 20.8 20.6 18.6 87 1.4 SSE 17 20 9 11 1010.1 1010.0 1.0
21/12:00am 21.1 21.1 18.9 87 1.4 SSE 17 20 9 11 1010.4 1010.3 1.0
 
Date/Time
CDT
Temp
°C
App
Temp
°C
Dew
Point
°C
Rel
Hum
%
Delta-T
°C
Wind Press
QNH
hPa
Press
MSL
hPa
Rain since
9am
mm
Dir  Spd
km/h
Gust
km/h
Spd
kts
Gust
kts
20/11:30pm 21.8 22.3 19.2 85 1.6 SSW 15 20 8 11 1010.7 1010.6 0.4
20/11:00pm 22.9 24.5 17.8 73 3.2 NE 6 11 3 6 1011.1 1011.1 0.0
20/10:30pm 23.0 24.8 18.3 75 3.0 WNW 6 9 3 5 1011.5 1011.5 0.0
20/10:00pm 22.8 25.0 17.5 72 3.3 ENE 2 9 1 5 1011.3 1011.3 0.0
20/09:30pm 22.8 23.0 17.7 73 3.2 ENE 13 15 7 8 1011.1 1011.1 0.0
20/09:00pm 23.0 24.8 18.3 75 3.0 NE 6 9 3 5 1011.1 1011.1 0.0
20/08:30pm 23.1 24.5 18.6 76 2.8 E 9 15 5 8 1011.0 1011.0 0.0
20/08:00pm 23.2 24.2 18.7 76 2.8 NE 11 15 6 8 1010.9 1010.9 0.0
20/07:30pm 23.5 24.8 18.4 73 3.2 ENE 9 13 5 7 1010.4 1010.3 0.0
20/07:00pm 24.2 24.1 18.8 72 3.4 ENE 17 22 9 12 1010.3 1010.2 0.0
20/06:30pm 24.0 25.9 18.6 72 3.4 WSW 6 9 3 5 1009.9 1009.8 0.0
20/06:00pm 24.3 24.7 18.2 68 3.8 W 13 17 7 9 1010.1 1010.0 0.0
20/05:30pm 27.5 24.6 18.8 59 5.6 ESE 32 39 17 21 1009.6 1009.5 0.0
20/05:00pm 24.9 24.5 18.1 66 4.3 SE 17 24 9 13 1010.1 1010.0 0.0

Latest Capital City Observations: Canberra | Sydney | Melbourne | Brisbane | Adelaide | Perth | Hobart | Darwin

Other Formats:

Comma delimited format used in spreadsheet applications
http://www.bom.gov.au/fwo/IDS60901/IDS60901.94677.axf

JavaScript Object Notation format (JSON) in row-major order
http://www.bom.gov.au/fwo/IDS60901/IDS60901.94677.json